Time;durP1;ratioP1;P1;durP2;ratioP2;P2;SDS_P1;SDS_P2;PMS_P1;PMS_P2;Temp;Humidity;BMP_temperature;BMP_pressure;BME280_temperature;BME280_humidity;BME280_pressure;Samples;Min_cycle;Max_cycle;Signal;HPM_P1;HPM_P2
2021/04/21 00:01:06;;;;;;;12.20;5.80;;;;;;;12.83;40.30;101085.94;5135971;27;20473;-51
2021/04/21 00:03:33;;;;;;;17.13;5.90;;;;;;;12.79;40.46;101081.44;5137210;27;20490;-50
2021/04/21 00:06:00;;;;;;;14.70;6.60;;;;;;;12.86;40.41;101077.41;5136319;27;20539;-49
2021/04/21 00:08:28;;;;;;;12.77;6.20;;;;;;;13.01;39.88;101080.56;5137315;27;20549;-50
2021/04/21 00:10:55;;;;;;;15.97;7.30;;;;;;;12.94;40.25;101070.78;5136104;27;20820;-48
2021/04/21 00:13:22;;;;;;;16.90;6.53;;;;;;;13.07;40.06;101073.00;5137665;27;20472;-51
2021/04/21 00:15:50;;;;;;;15.20;7.60;;;;;;;13.19;39.78;101067.38;5136500;27;20455;-50
2021/04/21 00:18:18;;;;;;;16.20;7.60;;;;;;;13.43;39.42;101076.00;5137917;27;20444;-50
2021/04/21 00:20:51;;;;;;;13.47;6.13;;;;;;;13.71;39.12;101071.78;5136630;27;20536;-48
2021/04/21 00:23:17;;;;;;;23.43;10.27;;;;;;;13.67;39.31;101072.50;5137491;27;20530;-48
2021/04/21 00:25:44;;;;;;;17.43;7.30;;;;;;;13.37;39.65;101061.97;5136558;27;20746;-49
2021/04/21 00:28:12;;;;;;;14.63;6.50;;;;;;;13.18;40.13;101068.22;5137947;27;20775;-47
2021/04/21 00:30:40;;;;;;;13.80;6.90;;;;;;;13.33;39.89;101072.19;5135754;27;20478;-52
2021/04/21 00:33:06;;;;;;;22.57;7.17;;;;;;;13.61;39.10;101065.41;5137405;27;20478;-50
2021/04/21 00:35:35;;;;;;;20.53;8.30;;;;;;;13.46;40.01;101055.38;5136515;27;20787;-48
2021/04/21 00:38:07;;;;;;;13.73;6.60;;;;;;;13.12;40.74;101059.34;5137810;27;20449;-52
2021/04/21 00:40:38;;;;;;;18.33;8.20;;;;;;;12.81;41.46;101057.38;5136519;27;20485;-47
2021/04/21 00:43:09;;;;;;;23.03;7.70;;;;;;;12.50;42.11;101056.22;5137349;27;20458;-47
2021/04/21 00:45:38;;;;;;;15.30;6.73;;;;;;;12.72;41.63;101058.75;5136229;27;20477;-48
2021/04/21 00:48:08;;;;;;;11.50;6.33;;;;;;;12.83;41.46;101050.56;5139962;27;20427;-48
2021/04/21 00:50:41;;;;;;;15.23;6.63;;;;;;;13.04;40.98;101052.19;5136247;27;20504;-51
2021/04/21 00:53:14;;;;;;;15.57;7.13;;;;;;;12.99;41.08;101052.81;5140132;27;20479;-48
2021/04/21 00:55:47;;;;;;;13.90;7.17;;;;;;;13.13;40.76;101058.53;5136479;27;20882;-49
2021/04/21 00:58:20;;;;;;;16.20;7.23;;;;;;;12.92;41.49;101051.75;5137663;27;20456;-49
2021/04/21 01:00:48;;;;;;;13.40;7.10;;;;;;;12.65;41.95;101060.22;5136171;27;20487;-48
2021/04/21 01:03:16;;;;;;;13.83;6.70;;;;;;;12.63;41.96;101064.47;5137282;27;20966;-53
2021/04/21 01:05:46;;;;;;;17.77;7.57;;;;;;;12.64;41.82;101061.94;5136219;27;20455;-50
2021/04/21 01:08:17;;;;;;;15.13;6.73;;;;;;;12.70;41.52;101061.28;5137693;27;20475;-47
2021/04/21 01:10:46;;;;;;;14.87;6.77;;;;;;;12.64;41.93;101055.88;5136198;27;20454;-50
2021/04/21 01:13:14;;;;;;;13.43;6.70;;;;;;;12.62;41.93;101057.53;5137038;27;20457;-48
2021/04/21 01:15:42;;;;;;;14.63;7.53;;;;;;;12.60;41.78;101059.19;5136095;27;20523;-50
2021/04/21 01:18:11;;;;;;;14.23;6.40;;;;;;;12.42;42.02;101049.88;5137593;27;20514;-48
2021/04/21 01:20:44;;;;;;;15.50;6.90;;;;;;;12.31;42.19;101046.84;5135802;27;20476;-48
2021/04/21 01:23:51;;;;;;;14.37;7.30;;;;;;;12.36;42.11;101049.63;5136985;27;20476;-51
2021/04/21 01:26:23;;;;;;;11.93;6.30;;;;;;;12.59;41.58;101052.22;5135894;27;20885;-50
2021/04/21 01:28:53;;;;;;;16.00;6.80;;;;;;;12.36;42.00;101049.63;5137085;27;20462;-51
2021/04/21 01:31:21;;;;;;;17.13;7.00;;;;;;;12.64;41.57;101043.81;5135681;27;20481;-49
2021/04/21 01:33:50;;;;;;;14.33;7.10;;;;;;;12.63;41.58;101043.75;5137103;27;20479;-49
2021/04/21 01:36:21;;;;;;;18.30;7.93;;;;;;;12.21;42.52;101043.00;5135633;27;20450;-51
2021/04/21 01:38:47;;;;;;;15.37;7.00;;;;;;;12.24;42.82;101045.75;5137310;27;20456;-52
2021/04/21 01:41:18;;;;;;;13.20;6.97;;;;;;;12.66;41.79;101043.84;5135291;27;20469;-50
2021/04/21 01:43:47;;;;;;;18.17;8.20;;;;;;;12.39;41.97;101045.47;5136190;27;20748;-51
2021/04/21 01:46:15;;;;;;;14.70;7.07;;;;;;;12.36;41.96;101039.28;5135669;27;20464;-49
2021/04/21 01:48:42;;;;;;;15.43;7.13;;;;;;;12.23;42.25;101041.41;5136661;27;20427;-49
2021/04/21 01:51:14;;;;;;;16.30;7.90;;;;;;;12.65;41.26;101035.22;5135471;27;20578;-48
2021/04/21 01:53:43;;;;;;;13.50;7.77;;;;;;;12.49;41.51;101035.44;5136330;27;21005;-49
2021/04/21 01:56:13;;;;;;;15.83;7.20;;;;;;;12.05;42.58;101043.25;5135544;27;20603;-48
2021/04/21 01:58:48;;;;;;;21.63;7.70;;;;;;;12.17;42.22;101046.31;5133938;27;21024;-49
2021/04/21 02:01:26;;;;;;;18.50;7.40;;;;;;;12.16;42.32;101041.97;5135093;27;21022;-50
2021/04/21 02:03:57;;;;;;;15.97;7.27;;;;;;;12.18;42.29;101048.09;5136476;27;20538;-47
2021/04/21 02:06:47;;;;;;;13.73;6.70;;;;;;;11.99;42.77;101049.00;5135244;27;20468;-47
2021/04/21 02:09:34;;;;;;;15.47;7.70;;;;;;;12.13;42.31;101042.72;5136499;27;20879;-51
2021/04/21 02:12:07;;;;;;;16.13;7.27;;;;;;;11.83;42.95;101040.63;5135621;27;20449;-49
2021/04/21 02:14:42;;;;;;;12.73;7.30;;;;;;;12.11;42.62;101043.50;5136588;27;20423;-48
2021/04/21 02:17:18;;;;;;;19.40;7.03;;;;;;;11.65;43.26;101052.78;5136163;28;20785;-48
2021/04/21 02:19:46;;;;;;;19.17;7.20;;;;;;;11.96;42.62;101049.78;5135598;27;20530;-50
2021/04/21 02:22:33;;;;;;;20.50;7.17;;;;;;;11.84;42.81;101051.88;5136123;27;20813;-48
2021/04/21 02:25:08;;;;;;;18.13;7.20;;;;;;;11.83;42.77;101047.50;5135056;27;20471;-47
2021/04/21 02:27:43;;;;;;;12.33;6.23;;;;;;;11.91;42.34;101040.94;5136457;28;20525;-48
2021/04/21 02:30:13;;;;;;;13.70;6.80;;;;;;;11.73;42.94;101044.53;5134835;27;20467;-47
2021/04/21 02:32:57;;;;;;;20.90;6.77;;;;;;;11.97;42.56;101042.91;5136197;27;20472;-48
2021/04/21 02:35:28;;;;;;;12.67;7.10;;;;;;;12.23;41.87;101033.63;5135117;27;20475;-49
2021/04/21 02:38:03;;;;;;;19.67;8.07;;;;;;;11.94;42.49;101042.78;5136345;28;20451;-48
2021/04/21 02:40:37;;;;;;;16.90;7.20;;;;;;;12.06;42.38;101034.66;5135113;27;20554;-48
2021/04/21 02:43:11;;;;;;;15.20;7.73;;;;;;;11.92;42.59;101042.72;5135970;27;20453;-48
2021/04/21 02:45:42;;;;;;;14.73;8.20;;;;;;;12.01;42.54;101032.72;5135027;27;20767;-50
2021/04/21 02:48:15;;;;;;;17.07;7.93;;;;;;;12.05;42.51;101033.75;5136438;28;20526;-52
2021/04/21 02:50:44;;;;;;;15.07;7.87;;;;;;;11.93;42.60;101039.31;5134088;27;20465;-48
2021/04/21 02:53:15;;;;;;;16.83;7.50;;;;;;;11.55;43.59;101048.94;5136299;27;20911;-48
2021/04/21 02:55:51;;;;;;;17.83;7.43;;;;;;;11.78;43.25;101039.56;5141655;27;20480;-51
2021/04/21 02:58:24;;;;;;;13.83;8.20;;;;;;;11.44;43.84;101033.84;5140254;27;20460;-47
2021/04/21 03:00:53;;;;;;;15.90;7.83;;;;;;;11.67;43.47;101040.81;5138568;27;20486;-50
2021/04/21 03:03:30;;;;;;;16.73;8.10;;;;;;;11.66;44.03;101039.94;5157457;27;20550;-47
2021/04/21 03:06:02;;;;;;;15.70;8.03;;;;;;;11.52;44.03;101035.88;5159908;27;20528;-52
2021/04/21 03:08:32;;;;;;;18.37;8.20;;;;;;;11.77;43.54;101034.31;5160696;27;20417;-48
2021/04/21 03:11:05;;;;;;;16.10;8.50;;;;;;;11.49;44.41;101036.66;5159645;27;20456;-50
2021/04/21 03:13:35;;;;;;;14.90;8.30;;;;;;;11.49;44.47;101041.81;5160372;27;20481;-49
2021/04/21 03:16:05;;;;;;;19.07;7.90;;;;;;;11.44;44.62;101038.16;5160177;27;20467;-49
2021/04/21 03:18:33;;;;;;;21.87;8.60;;;;;;;11.37;44.77;101037.00;5160676;27;20430;-47
2021/04/21 03:21:06;;;;;;;16.47;8.70;;;;;;;11.34;45.14;101032.56;5159400;27;20452;-52
2021/04/21 03:23:34;;;;;;;19.10;9.13;;;;;;;11.09;45.55;101035.81;5160557;27;20449;-49
2021/04/21 03:26:01;;;;;;;17.80;9.20;;;;;;;11.29;45.33;101033.22;5159308;27;20474;-50
2021/04/21 03:28:30;;;;;;;16.50;8.30;;;;;;;11.25;45.29;101026.13;5160157;27;20430;-51
2021/04/21 03:30:58;;;;;;;18.13;8.47;;;;;;;11.23;45.49;101027.78;5158927;27;20570;-48
2021/04/21 03:33:28;;;;;;;16.50;9.50;;;;;;;11.30;45.18;101019.47;5160143;27;20477;-47
2021/04/21 03:35:55;;;;;;;15.33;8.40;;;;;;;11.16;45.60;101026.59;5158973;27;20478;-49
2021/04/21 03:38:22;;;;;;;18.23;8.47;;;;;;;11.03;45.87;101027.78;5160119;27;20451;-47
2021/04/21 03:40:49;;;;;;;19.53;8.80;;;;;;;10.92;46.33;101024.72;5159167;27;20475;-47
2021/04/21 03:43:15;;;;;;;16.30;8.70;;;;;;;10.86;46.63;101022.75;5159881;27;20481;-47
2021/04/21 03:45:47;;;;;;;19.37;9.20;;;;;;;11.12;45.83;101027.31;5159158;27;20479;-49
2021/04/21 03:48:15;;;;;;;21.63;9.07;;;;;;;11.38;45.43;101018.09;5159902;27;20890;-48
2021/04/21 03:50:43;;;;;;;16.17;9.00;;;;;;;11.77;44.59;101021.38;5158985;27;20457;-47
2021/04/21 03:53:14;;;;;;;19.70;8.87;;;;;;;11.57;44.90;101029.19;5159174;27;20475;-50
2021/04/21 03:55:42;;;;;;;17.57;9.67;;;;;;;11.31;45.42;101027.28;5159149;27;20467;-47
2021/04/21 03:58:10;;;;;;;20.27;10.00;;;;;;;10.90;46.50;101034.97;5159932;27;20458;-47
2021/04/21 04:00:40;;;;;;;17.43;9.33;;;;;;;10.85;46.70;101020.97;5158470;27;20814;-47
2021/04/21 04:03:09;;;;;;;17.67;8.40;;;;;;;11.09;45.98;101028.06;5159276;27;20465;-48
2021/04/21 04:05:43;;;;;;;18.63;9.03;;;;;;;11.04;46.15;101021.81;5157305;27;20458;-47
2021/04/21 04:08:13;;;;;;;18.50;9.53;;;;;;;11.11;46.01;101018.66;5159757;27;20727;-49
2021/04/21 04:10:45;;;;;;;17.70;9.30;;;;;;;11.08;46.10;101018.56;5158074;27;20457;-47
2021/04/21 04:13:12;;;;;;;27.10;12.30;;;;;;;10.97;46.81;101020.63;5159463;27;20475;-47
2021/04/21 04:15:40;;;;;;;25.40;10.23;;;;;;;10.97;46.95;101022.34;5158017;27;20478;-47
2021/04/21 04:18:07;;;;;;;51.27;23.53;;;;;;;10.91;47.17;101020.34;5159236;27;20472;-48
2021/04/21 04:20:34;;;;;;;23.93;10.77;;;;;;;10.66;47.46;101022.72;5158148;27;20485;-48
2021/04/21 04:23:06;;;;;;;25.20;11.30;;;;;;;10.90;46.89;101021.19;5158676;27;20475;-48
2021/04/21 04:25:37;;;;;;;25.30;12.57;;;;;;;10.70;47.61;101020.28;5157898;27;20468;-47
2021/04/21 04:28:04;;;;;;;20.00;9.33;;;;;;;10.36;48.17;101017.88;5159213;27;20456;-47
2021/04/21 04:30:31;;;;;;;20.50;10.30;;;;;;;10.42;48.35;101019.88;5157673;27;20454;-47
2021/04/21 04:32:59;;;;;;;32.67;13.77;;;;;;;10.56;48.18;101017.94;5158773;27;20446;-48
2021/04/21 04:35:26;;;;;;;37.30;16.33;;;;;;;10.87;47.72;101023.66;5157801;27;20482;-47
2021/04/21 04:37:57;;;;;;;33.43;15.10;;;;;;;11.07;46.99;101027.09;5159233;27;20428;-47
2021/04/21 04:40:23;;;;;;;20.60;10.27;;;;;;;11.30;45.95;101025.53;5157816;27;20479;-48
2021/04/21 04:42:51;;;;;;;23.87;12.47;;;;;;;11.18;46.52;101025.88;5158433;27;20464;-48
2021/04/21 04:45:20;;;;;;;29.20;12.33;;;;;;;11.30;46.56;101022.94;5157213;27;20454;-50
2021/04/21 04:47:48;;;;;;;22.63;10.57;;;;;;;11.04;47.31;101022.66;5158996;27;20437;-49
2021/04/21 04:50:16;;;;;;;19.97;10.10;;;;;;;10.74;47.99;101027.34;5157486;27;20460;-49
2021/04/21 04:52:45;;;;;;;25.27;10.70;;;;;;;10.62;48.63;101028.56;5157910;27;20446;-50
2021/04/21 04:55:14;;;;;;;21.53;11.50;;;;;;;10.61;48.58;101026.78;5157135;27;20877;-48
2021/04/21 04:57:46;;;;;;;25.90;10.77;;;;;;;10.78;48.26;101024.97;5158467;27;20425;-52
2021/04/21 05:00:16;;;;;;;22.50;10.70;;;;;;;11.03;47.36;101025.19;5154243;27;20446;-52
2021/04/21 05:02:45;;;;;;;22.43;9.93;;;;;;;11.02;47.76;101034.63;5154827;27;20443;-50
2021/04/21 05:05:13;;;;;;;23.80;10.67;;;;;;;11.10;47.42;101019.50;5157054;27;20529;-51
2021/04/21 05:07:43;;;;;;;21.20;10.20;;;;;;;11.01;47.61;101031.97;5158330;27;20429;-51
2021/04/21 05:10:16;;;;;;;20.30;10.70;;;;;;;11.05;47.60;101032.22;5156885;27;20483;-50
2021/04/21 05:12:43;;;;;;;22.23;10.83;;;;;;;11.12;47.48;101035.06;5157938;27;20464;-49
2021/04/21 05:15:40;;;;;;;23.07;10.60;;;;;;;11.02;47.56;101033.78;5156898;27;20907;-51
2021/04/21 05:18:40;;;;;;;21.00;10.60;;;;;;;11.39;46.74;101034.47;5113138;27;20486;-51
2021/04/21 05:21:30;;;;;;;22.80;11.00;;;;;;;11.27;47.08;101034.84;5155368;27;20548;-49
2021/04/21 05:24:37;;;;;;;23.37;11.20;;;;;;;11.05;47.49;101039.06;5158007;27;20452;-48
2021/04/21 05:27:26;;;;;;;21.50;10.70;;;;;;;11.54;46.76;101040.28;5157455;27;20460;-49
2021/04/21 05:30:30;;;;;;;25.73;10.93;;;;;;;11.86;45.97;101038.16;5156729;27;20455;-50
2021/04/21 05:33:39;;;;;;;23.50;10.60;;;;;;;12.01;45.79;101037.03;5157284;27;20911;-49
2021/04/21 05:36:43;;;;;;;25.13;11.87;;;;;;;11.83;46.39;101038.03;5156092;27;20765;-48
2021/04/21 05:39:49;;;;;;;24.70;11.97;;;;;;;11.99;46.11;101044.72;5157687;27;20451;-51
2021/04/21 05:43:03;;;;;;;28.33;12.23;;;;;;;12.23;45.75;101041.41;5156710;27;20440;-52
2021/04/21 05:46:14;;;;;;;23.73;12.60;;;;;;;12.05;46.45;101045.84;5155987;27;20967;-48
2021/04/21 05:49:04;;;;;;;24.60;12.90;;;;;;;12.42;46.50;101057.63;5109558;27;20422;-47
2021/04/21 05:51:45;;;;;;;25.17;11.90;;;;;;;12.23;47.07;101056.91;5155889;27;20506;-47
2021/04/21 05:54:35;;;;;;;29.13;13.57;;;;;;;12.51;46.47;101060.56;5157550;27;20446;-49
2021/04/21 05:57:20;;;;;;;34.90;13.60;;;;;;;12.37;46.81;101057.44;5156734;27;20445;-49
2021/04/21 06:00:14;;;;;;;28.10;12.93;;;;;;;12.63;46.47;101048.94;5156275;27;20459;-48
2021/04/21 06:02:45;;;;;;;28.10;12.50;;;;;;;13.02;45.72;101047.78;5156796;27;20458;-48
2021/04/21 06:05:13;;;;;;;30.53;13.43;;;;;;;13.04;46.15;101046.09;5155892;27;20925;-50
2021/04/21 06:07:41;;;;;;;27.70;11.90;;;;;;;12.93;47.52;101053.50;5157182;27;20899;-48
2021/04/21 06:10:23;;;;;;;26.33;12.07;;;;;;;13.15;46.37;101049.97;5146250;27;20558;-47
2021/04/21 06:12:55;;;;;;;29.00;13.10;;;;;;;13.06;46.75;101055.72;5134497;27;20462;-49
2021/04/21 06:15:23;;;;;;;24.67;11.73;;;;;;;13.17;46.53;101053.50;5145935;27;20494;-50
2021/04/21 06:17:55;;;;;;;35.93;16.63;;;;;;;13.49;46.50;101051.19;5149488;27;20459;-50
2021/04/21 06:20:30;;;;;;;28.37;14.10;;;;;;;13.49;46.64;101061.56;5135058;27;20446;-50
2021/04/21 06:23:02;;;;;;;26.53;13.47;;;;;;;13.63;46.53;101056.84;5150329;27;20471;-50
2021/04/21 06:25:28;;;;;;;23.83;12.00;;;;;;;13.96;46.15;101057.94;5155814;27;20480;-48
2021/04/21 06:28:09;;;;;;;26.27;14.63;;;;;;;14.20;46.47;101053.47;5157409;27;20532;-49
2021/04/21 06:30:36;;;;;;;44.43;21.80;;;;;;;14.42;45.75;101061.06;5152677;27;20991;-48
2021/04/21 06:33:04;;;;;;;27.57;13.77;;;;;;;14.44;45.16;101062.03;5140273;27;20472;-49
2021/04/21 06:35:31;;;;;;;32.90;13.97;;;;;;;14.37;45.76;101067.88;5139199;27;20484;-54
2021/04/21 06:37:59;;;;;;;37.50;16.17;;;;;;;14.44;45.85;101067.22;5140606;27;20453;-51
2021/04/21 06:40:27;;;;;;;27.10;14.17;;;;;;;14.38;46.07;101061.84;5139173;27;20766;-47
2021/04/21 06:42:54;;;;;;;26.33;13.13;;;;;;;14.44;45.47;101063.72;5139844;27;20478;-47
2021/04/21 06:45:25;;;;;;;25.43;14.33;;;;;;;14.36;46.11;101073.00;5138455;27;20483;-49
2021/04/21 06:47:52;;;;;;;24.50;13.43;;;;;;;14.49;46.25;101069.94;5148761;27;20896;-50
2021/04/21 06:50:19;;;;;;;22.67;13.20;;;;;;;14.51;46.12;101064.81;5159315;27;20915;-50
2021/04/21 06:52:46;;;;;;;25.67;14.60;;;;;;;14.65;45.94;101071.28;5160411;27;20785;-49
2021/04/21 06:55:15;;;;;;;29.10;13.17;;;;;;;14.71;45.66;101071.47;5159142;27;20902;-48
2021/04/21 06:57:43;;;;;;;22.47;12.23;;;;;;;14.74;45.39;101064.59;5160686;27;20459;-48
2021/04/21 07:00:11;;;;;;;28.77;12.43;;;;;;;14.84;45.43;101066.66;5159305;27;20481;-50
2021/04/21 07:02:39;;;;;;;25.10;12.97;;;;;;;14.62;45.96;101065.13;5159856;27;21244;-49
2021/04/21 07:05:25;;;;;;;21.57;12.27;;;;;;;15.21;45.18;101066.81;5159122;27;20940;-49
2021/04/21 07:07:59;;;;;;;27.83;14.10;;;;;;;15.21;44.99;101078.13;5160112;27;20457;-49
2021/04/21 07:10:26;;;;;;;24.57;12.43;;;;;;;15.52;44.55;101068.53;5142916;27;20486;-47
2021/04/21 07:12:54;;;;;;;19.73;12.07;;;;;;;15.35;45.08;101073.31;5139275;27;20449;-46
2021/04/21 07:15:21;;;;;;;22.80;12.77;;;;;;;15.28;45.66;101071.34;5138423;27;20783;-49
2021/04/21 07:17:48;;;;;;;21.63;12.33;;;;;;;15.59;45.06;101079.09;5139946;27;20458;-46
2021/04/21 07:20:15;;;;;;;22.37;12.93;;;;;;;15.79;44.43;101074.41;5138408;27;20778;-46
2021/04/21 07:22:42;;;;;;;24.20;13.47;;;;;;;15.79;45.10;101080.50;5153975;27;20850;-49
2021/04/21 07:25:10;;;;;;;23.27;12.53;;;;;;;14.96;46.61;101077.41;5158876;27;20558;-50
2021/04/21 07:27:37;;;;;;;29.63;15.63;;;;;;;15.77;45.51;101076.09;5159981;27;20451;-49
2021/04/21 07:30:06;;;;;;;27.43;13.07;;;;;;;15.53;46.33;101070.31;5158773;27;20497;-50
2021/04/21 07:32:44;;;;;;;27.97;13.90;;;;;;;15.34;46.94;101081.91;5159886;27;20474;-52
2021/04/21 07:35:18;;;;;;;28.27;15.43;;;;;;;15.95;45.70;101075.72;5158932;27;20557;-49
2021/04/21 07:37:45;;;;;;;32.23;15.87;;;;;;;16.37;44.92;101076.72;5160012;27;20454;-49
2021/04/21 07:40:27;;;;;;;51.80;19.70;;;;;;;16.26;45.50;101083.38;5139227;27;20482;-50
2021/04/21 07:43:13;;;;;;;29.17;16.60;;;;;;;15.90;46.08;101092.91;5134376;27;20487;-53
2021/04/21 07:45:54;;;;;;;42.43;20.23;;;;;;;16.02;46.47;101097.56;5137871;27;20629;-47
2021/04/21 07:48:44;;;;;;;31.70;17.50;;;;;;;15.99;46.54;101092.28;5138924;27;20452;-48
2021/04/21 07:51:41;;;;;;;42.67;20.50;;;;;;;15.96;46.97;101095.69;5137496;27;20562;-51
2021/04/21 07:54:22;;;;;;;44.40;23.23;;;;;;;16.01;46.78;101088.00;5137990;27;20539;-47
2021/04/21 07:57:11;;;;;;;38.57;20.47;;;;;;;16.42;45.48;101085.47;5137107;27;20542;-49
2021/04/21 07:59:40;;;;;;;34.33;19.70;;;;;;;16.04;46.44;101088.06;5131626;27;20500;-51
2021/04/21 08:02:13;;;;;;;33.53;17.40;;;;;;;15.66;47.15;101094.88;5138379;27;20574;-47
2021/04/21 08:04:51;;;;;;;38.83;20.10;;;;;;;16.18;46.75;101097.09;5137466;27;20454;-50
2021/04/21 08:07:26;;;;;;;39.40;22.17;;;;;;;16.49;46.06;101088.22;5138447;27;20460;-48
2021/04/21 08:09:52;;;;;;;42.20;21.10;;;;;;;15.98;46.86;101099.19;5137394;27;20455;-50
2021/04/21 08:12:19;;;;;;;35.90;20.10;;;;;;;16.26;46.58;101099.84;5137805;27;20496;-50
2021/04/21 08:14:47;;;;;;;45.03;24.17;;;;;;;15.92;47.73;101099.03;5137253;27;20474;-52
2021/04/21 08:17:16;;;;;;;68.87;36.53;;;;;;;16.33;47.18;101104.41;5138187;27;20476;-47
2021/04/21 08:19:44;;;;;;;38.97;21.80;;;;;;;15.91;48.03;101115.47;5137343;27;20444;-48
2021/04/21 08:22:11;;;;;;;38.23;23.10;;;;;;;16.25;47.32;101111.13;5148088;27;20503;-48
2021/04/21 08:24:43;;;;;;;36.30;22.27;;;;;;;16.45;47.31;101115.91;5144703;27;20464;-51
2021/04/21 08:27:12;;;;;;;37.50;22.00;;;;;;;15.76;49.20;101113.34;5138134;27;20500;-47
2021/04/21 08:29:40;;;;;;;44.60;22.13;;;;;;;15.15;51.22;101119.53;5137172;27;20466;-51
2021/04/21 08:32:08;;;;;;;40.77;23.50;;;;;;;15.28;51.49;101119.88;5137371;27;20483;-47
2021/04/21 08:34:36;;;;;;;42.90;23.10;;;;;;;15.03;51.99;101132.16;5137973;27;20859;-48
2021/04/21 08:37:04;;;;;;;47.60;23.77;;;;;;;14.66;52.45;101127.56;5137636;27;20466;-47
2021/04/21 08:39:36;;;;;;;43.60;22.93;;;;;;;14.71;51.85;101131.19;5138138;27;20444;-48
2021/04/21 08:42:03;;;;;;;43.50;23.90;;;;;;;15.17;50.32;101130.84;5116580;28;20946;-49
2021/04/21 08:44:35;;;;;;;39.20;21.37;;;;;;;14.94;51.22;101133.66;5117370;28;20556;-48
2021/04/21 08:47:03;;;;;;;46.20;21.97;;;;;;;15.27;50.21;101133.72;5130214;27;20588;-50
2021/04/21 08:49:30;;;;;;;53.47;26.60;;;;;;;15.16;50.84;101134.28;5137999;27;20498;-49
2021/04/21 08:52:00;;;;;;;53.57;27.50;;;;;;;15.36;50.47;101126.16;5135164;27;20470;-48
2021/04/21 08:54:28;;;;;;;97.00;40.53;;;;;;;15.08;50.98;101128.84;5137566;27;20430;-49
2021/04/21 08:56:55;;;;;;;43.17;23.57;;;;;;;15.83;49.37;101130.03;5136017;27;20559;-47
2021/04/21 08:59:22;;;;;;;39.13;21.70;;;;;;;15.47;50.18;101132.53;5139512;27;20451;-47
2021/04/21 09:01:49;;;;;;;47.33;25.67;;;;;;;16.03;49.36;101134.03;5136406;27;20471;-47
2021/04/21 09:04:17;;;;;;;53.70;27.27;;;;;;;16.33;48.69;101135.63;5137731;27;20463;-48
2021/04/21 09:06:48;;;;;;;51.07;26.30;;;;;;;16.23;48.37;101130.16;5136175;27;20479;-48
2021/04/21 09:09:16;;;;;;;45.33;21.67;;;;;;;15.55;50.25;101135.34;5137424;27;20463;-49
2021/04/21 09:11:43;;;;;;;51.40;24.20;;;;;;;15.89;49.20;101130.19;5135743;27;20472;-48
2021/04/21 09:14:10;;;;;;;44.23;22.50;;;;;;;15.96;49.30;101139.03;5134584;27;20463;-48
2021/04/21 09:16:37;;;;;;;39.93;21.87;;;;;;;16.17;48.12;101137.00;5134715;27;20472;-47
2021/04/21 09:19:09;;;;;;;33.63;19.67;;;;;;;16.15;48.59;101135.19;5137145;27;20464;-47
2021/04/21 09:21:36;;;;;;;35.83;19.63;;;;;;;16.19;48.12;101143.09;5140908;27;20471;-50
2021/04/21 09:24:03;;;;;;;39.80;19.63;;;;;;;16.45;47.34;101139.34;5157734;27;20482;-48
2021/04/21 09:26:33;;;;;;;33.77;19.87;;;;;;;15.97;48.33;101136.47;5156346;27;21101;-48
2021/04/21 09:28:59;;;;;;;37.53;19.13;;;;;;;15.82;49.08;101144.72;5157893;27;20461;-51
2021/04/21 09:31:28;;;;;;;36.37;19.10;;;;;;;15.64;48.78;101139.94;5156326;27;20471;-51
2021/04/21 09:34:08;;;;;;;31.70;17.50;;;;;;;15.82;48.84;101136.03;5147710;27;20453;-48
2021/04/21 09:36:37;;;;;;;34.63;19.60;;;;;;;16.16;47.54;101148.22;5135691;27;20551;-48
2021/04/21 09:39:14;;;;;;;47.93;24.60;;;;;;;16.66;46.95;101143.31;5136326;27;20456;-47
2021/04/21 09:41:43;;;;;;;32.27;18.03;;;;;;;16.18;47.72;101149.16;5131591;27;20501;-51
2021/04/21 09:44:14;;;;;;;37.00;17.73;;;;;;;15.95;47.89;101130.38;5127781;27;20550;-48
2021/04/21 09:46:41;;;;;;;31.50;16.10;;;;;;;14.89;49.86;101137.84;5135118;27;20489;-47
2021/04/21 09:49:33;;;;;;;32.47;16.70;;;;;;;15.04;50.12;101147.81;5136510;27;20459;-47
2021/04/21 09:52:01;;;;;;;35.23;16.80;;;;;;;15.61;48.80;101143.31;5135035;27;20471;-49
2021/04/21 09:54:32;;;;;;;31.53;17.37;;;;;;;15.65;48.81;101146.88;5136628;27;20444;-47
2021/04/21 09:57:18;;;;;;;28.53;16.90;;;;;;;15.47;48.91;101142.94;5135684;27;20475;-49
2021/04/21 09:59:56;;;;;;;31.63;18.03;;;;;;;15.09;49.84;101137.53;5130193;27;20464;-47
2021/04/21 10:02:30;;;;;;;33.60;19.17;;;;;;;15.85;48.31;101141.34;5135800;27;20485;-51
2021/04/21 10:04:57;;;;;;;25.60;15.23;;;;;;;15.39;48.89;101134.06;5117087;27;21194;-53
2021/04/21 10:07:23;;;;;;;40.23;20.30;;;;;;;15.11;49.35;101135.84;5115860;28;20543;-48
2021/04/21 10:09:57;;;;;;;27.97;14.97;;;;;;;15.47;48.84;101142.94;5114720;28;20462;-48
2021/04/21 10:12:26;;;;;;;25.63;13.87;;;;;;;15.42;48.74;101144.53;5115714;28;20589;-50
2021/04/21 10:15:06;;;;;;;31.50;16.33;;;;;;;15.31;48.74;101141.63;5135189;27;20452;-50
2021/04/21 10:17:35;;;;;;;25.40;14.87;;;;;;;15.76;47.45;101145.47;5136531;27;20558;-48
2021/04/21 10:20:04;;;;;;;23.50;12.47;;;;;;;15.34;48.23;101140.84;5135094;27;20471;-49
2021/04/21 10:22:31;;;;;;;24.93;12.50;;;;;;;15.44;47.80;101141.97;5135893;27;20479;-47
2021/04/21 10:24:58;;;;;;;27.90;14.63;;;;;;;15.39;47.90;101147.06;5134707;27;20560;-48
2021/04/21 10:27:26;;;;;;;25.33;12.70;;;;;;;16.09;47.22;101145.44;5132008;28;20457;-49
2021/04/21 10:29:53;;;;;;;22.00;11.03;;;;;;;15.48;47.71;101144.69;5130001;27;20468;-51
2021/04/21 10:32:21;;;;;;;17.37;9.63;;;;;;;15.53;46.72;101142.22;5134900;28;20539;-52
2021/04/21 10:34:47;;;;;;;19.40;10.67;;;;;;;15.86;45.62;101136.19;5130756;27;20458;-50
2021/04/21 10:37:15;;;;;;;13.40;7.87;;;;;;;15.91;44.32;101133.69;5134443;28;20480;-50
2021/04/21 10:39:46;;;;;;;15.03;7.73;;;;;;;15.99;43.93;101142.59;5133321;27;20458;-47
2021/04/21 10:42:15;;;;;;;17.50;6.40;;;;;;;15.72;44.25;101143.59;5133980;28;20490;-48
2021/04/21 10:44:44;;;;;;;13.13;6.20;;;;;;;15.56;45.33;101141.41;5133449;27;20456;-52
2021/04/21 10:47:12;;;;;;;11.30;6.60;;;;;;;15.83;44.97;101145.63;5134301;28;20494;-48
2021/04/21 10:49:50;;;;;;;9.93;6.10;;;;;;;16.06;44.19;101141.91;5133444;27;20539;-48
2021/04/21 10:52:22;;;;;;;12.43;6.10;;;;;;;15.95;43.17;101150.28;5134163;28;20483;-47
2021/04/21 10:54:50;;;;;;;10.30;5.20;;;;;;;15.60;44.25;101153.69;5133716;27;20448;-49
2021/04/21 10:57:28;;;;;;;11.47;6.07;;;;;;;15.88;43.52;101144.00;5134520;28;20539;-51
2021/04/21 11:00:17;;;;;;;10.20;4.10;;;;;;;15.87;42.48;101148.34;5136340;27;20985;-48
2021/04/21 11:02:48;;;;;;;9.77;4.30;;;;;;;15.89;42.56;101140.59;5134337;27;20479;-50
2021/04/21 11:05:16;;;;;;;8.93;3.30;;;;;;;15.73;42.51;101140.16;5132843;27;20479;-49
2021/04/21 11:07:44;;;;;;;9.63;3.80;;;;;;;15.56;42.67;101138.81;5134508;27;20612;-50
2021/04/21 11:10:36;;;;;;;11.80;3.60;;;;;;;15.38;41.86;101153.06;5133164;27;20476;-48
2021/04/21 11:13:05;;;;;;;12.83;3.43;;;;;;;15.64;40.54;101147.75;5133707;27;20488;-50
2021/04/21 11:15:40;;;;;;;12.50;3.60;;;;;;;16.13;39.95;101144.66;5138426;27;20476;-50
2021/04/21 11:18:23;;;;;;;10.97;3.23;;;;;;;16.23;39.00;101136.25;5138632;27;20542;-49
2021/04/21 11:20:54;;;;;;;13.03;3.33;;;;;;;16.52;39.02;101145.59;5137803;27;20479;-49
2021/04/21 11:23:52;;;;;;;8.00;3.03;;;;;;;16.26;39.46;101133.69;5138666;27;20475;-48
2021/04/21 11:26:46;;;;;;;8.10;3.70;;;;;;;16.81;38.70;101138.44;5137389;27;20563;-51
2021/04/21 11:29:16;;;;;;;8.80;3.40;;;;;;;16.35;38.58;101140.00;5138446;27;20570;-48
2021/04/21 11:32:13;;;;;;;10.00;3.77;;;;;;;16.81;37.56;101128.03;5145939;27;20474;-50
2021/04/21 11:34:41;;;;;;;27.00;12.53;;;;;;;16.50;38.01;101122.13;5124299;27;20462;-48
2021/04/21 11:37:13;;;;;;;9.33;2.93;;;;;;;16.56;38.09;101124.00;5131236;27;20498;-50